createdAt,value
2022-09-01T00:00:13.857Z,20.45
2022-09-01T00:03:00.947Z,20.39
2022-09-01T00:05:28.488Z,20.34
2022-09-01T00:07:55.734Z,20.36
2022-09-01T00:10:23.399Z,20.35
2022-09-01T00:12:50.651Z,20.27
2022-09-01T00:15:17.905Z,20.24
2022-09-01T00:17:45.053Z,20.22
2022-09-01T00:20:15.876Z,20.22
2022-09-01T00:22:45.417Z,20.19
2022-09-01T00:25:12.650Z,20.12
2022-09-01T00:27:39.793Z,20.18
2022-09-01T00:30:08.782Z,20.22
2022-09-01T00:32:36.029Z,20.25
2022-09-01T00:35:04.969Z,20.25
2022-09-01T00:37:32.285Z,20.17
2022-09-01T00:40:00.249Z,20.10
2022-09-01T00:42:27.506Z,20.09
2022-09-01T00:44:54.788Z,20.04
2022-09-01T00:47:22.423Z,20.03
2022-09-01T00:49:51.847Z,20.00
2022-09-01T00:52:31.155Z,19.95
2022-09-01T00:55:09.569Z,19.94
2022-09-01T00:57:37.571Z,19.93
2022-09-01T01:00:11.274Z,19.85
2022-09-01T01:02:41.170Z,19.86
2022-09-01T01:05:10.610Z,19.88
2022-09-01T01:07:47.602Z,19.92
2022-09-01T01:10:21.981Z,19.93
2022-09-01T01:12:51.207Z,19.95
2022-09-01T01:15:19.509Z,19.90
2022-09-01T01:17:46.780Z,19.84
2022-09-01T01:20:35.440Z,19.76
2022-09-01T01:23:24.297Z,19.83
2022-09-01T01:25:54.451Z,19.83
2022-09-01T01:28:24.134Z,19.79
2022-09-01T01:31:11.406Z,19.77
2022-09-01T01:33:46.309Z,19.81
2022-09-01T01:36:25.479Z,19.81
2022-09-01T01:38:55.245Z,19.82
2022-09-01T01:41:23.933Z,19.85
2022-09-01T01:43:51.201Z,19.87
2022-09-01T01:46:19.827Z,19.85
2022-09-01T01:48:50.075Z,19.82
2022-09-01T01:51:20.998Z,19.82
2022-09-01T01:53:52.176Z,19.83
2022-09-01T01:56:20.109Z,19.86
2022-09-01T01:58:47.385Z,19.83
2022-09-01T02:01:16.839Z,19.76
2022-09-01T02:03:44.532Z,19.70
2022-09-01T02:06:11.966Z,19.67
2022-09-01T02:08:40.696Z,19.63
2022-09-01T02:11:08.338Z,19.58
2022-09-01T02:13:35.614Z,19.57
2022-09-01T02:16:11.803Z,19.60
2022-09-01T02:18:49.550Z,19.63
2022-09-01T02:21:20.671Z,19.64
2022-09-01T02:24:00.129Z,19.59
2022-09-01T02:26:39.181Z,19.56
2022-09-01T02:29:17.673Z,19.43
2022-09-01T02:31:48.736Z,19.35
2022-09-01T02:34:16.765Z,19.31
2022-09-01T02:36:47.790Z,19.18
2022-09-01T02:39:24.162Z,19.09
2022-09-01T02:41:51.966Z,19.09
2022-09-01T02:44:23.508Z,19.11
2022-09-01T02:46:50.891Z,19.02
2022-09-01T02:49:28.153Z,18.97
2022-09-01T02:52:00.930Z,18.97
2022-09-01T02:54:31.288Z,18.96
2022-09-01T02:56:59.310Z,18.98
2022-09-01T02:59:30.058Z,18.98
2022-09-01T03:02:01.569Z,18.99
2022-09-01T03:04:33.331Z,19.03
2022-09-01T03:07:06.150Z,19.06
2022-09-01T03:09:34.836Z,19.10
2022-09-01T03:12:06.982Z,19.08
2022-09-01T03:14:35.125Z,19.04
2022-09-01T03:17:02.754Z,19.01
2022-09-01T03:19:34.393Z,19.02
2022-09-01T03:22:01.568Z,18.93
2022-09-01T03:24:31.805Z,18.94
2022-09-01T03:27:00.857Z,18.92
2022-09-01T03:29:28.441Z,18.89
2022-09-01T03:31:55.826Z,18.93
2022-09-01T03:34:23.330Z,19.00
2022-09-01T03:36:51.395Z,19.07
2022-09-01T03:39:24.796Z,19.09
2022-09-01T03:41:52.355Z,19.12
2022-09-01T03:44:19.809Z,19.13
2022-09-01T03:46:47.169Z,19.13
2022-09-01T03:49:15.146Z,19.11
2022-09-01T03:51:44.445Z,19.09
2022-09-01T03:54:12.634Z,19.07
2022-09-01T03:56:41.126Z,19.04
2022-09-01T03:59:16.215Z,19.02
2022-09-01T04:01:44.951Z,19.01
2022-09-01T04:04:16.203Z,19.01
2022-09-01T04:06:45.636Z,18.98
2022-09-01T04:09:14.404Z,18.97
2022-09-01T04:11:46.548Z,19.01
2022-09-01T04:14:15.927Z,19.02
2022-09-01T04:17:02.897Z,19.00
2022-09-01T04:19:36.421Z,19.02
2022-09-01T04:22:04.809Z,19.01
2022-09-01T04:24:45.293Z,19.00
2022-09-01T04:27:15.127Z,19.04
2022-09-01T04:29:45.742Z,18.99
2022-09-01T04:32:13.492Z,18.96
2022-09-01T04:34:47.472Z,18.86
2022-09-01T04:37:21.340Z,18.73
2022-09-01T04:39:57.137Z,18.66
2022-09-01T04:42:29.581Z,18.65
2022-09-01T04:45:01.935Z,18.64
2022-09-01T04:47:37.164Z,18.62
2022-09-01T04:50:14.391Z,18.58
2022-09-01T04:52:47.265Z,18.57
2022-09-01T04:55:28.224Z,18.62
2022-09-01T04:57:58.625Z,18.70
2022-09-01T05:00:31.206Z,18.79
2022-09-01T05:03:05.436Z,18.82
2022-09-01T05:06:23.268Z,18.82
2022-09-01T05:08:58.916Z,18.76
2022-09-01T05:11:45.357Z,18.80
2022-09-01T05:14:34.949Z,18.84
2022-09-01T05:17:06.370Z,18.82
2022-09-01T05:19:33.866Z,18.83
2022-09-01T05:22:01.374Z,18.84
2022-09-01T05:24:38.535Z,18.84
2022-09-01T05:27:10.105Z,18.79
2022-09-01T05:29:39.126Z,18.85
2022-09-01T05:32:09.682Z,18.92
2022-09-01T05:34:40.477Z,19.04
2022-09-01T05:37:09.017Z,19.09
2022-09-01T05:39:38.904Z,19.11
2022-09-01T05:42:09.953Z,19.06
2022-09-01T05:44:44.628Z,18.99
2022-09-01T05:47:20.937Z,19.02
2022-09-01T05:49:50.048Z,19.02
2022-09-01T05:52:17.338Z,19.09
2022-09-01T05:54:45.558Z,19.17
2022-09-01T05:57:33.269Z,19.25
2022-09-01T06:00:02.053Z,19.38
2022-09-01T06:02:30.406Z,19.46
2022-09-01T06:04:59.390Z,19.58
2022-09-01T06:07:31.422Z,19.53
2022-09-01T06:10:00.904Z,19.50
2022-09-01T06:12:28.802Z,19.63
2022-09-01T06:14:56.437Z,19.68
2022-09-01T06:17:26.675Z,19.77
2022-09-01T06:19:56.950Z,19.98
2022-09-01T06:22:28.456Z,20.14
2022-09-01T06:25:01.117Z,20.32
2022-09-01T06:27:38.213Z,20.42
2022-09-01T06:30:14.517Z,20.47
2022-09-01T06:32:44.152Z,20.53
2022-09-01T06:35:13.130Z,20.59
2022-09-01T06:37:42.856Z,20.61
2022-09-01T06:40:17.332Z,20.67
2022-09-01T06:42:51.977Z,20.67
2022-09-01T06:45:24.190Z,20.74
2022-09-01T06:47:52.297Z,20.82
2022-09-01T06:53:34.329Z,21.13
2022-09-01T06:56:03.271Z,21.34
2022-09-01T06:58:30.883Z,21.42
2022-09-01T07:00:58.371Z,21.40
2022-09-01T07:03:26.372Z,21.32
2022-09-01T07:10:18.628Z,21.36
2022-09-01T07:13:19.639Z,21.44
2022-09-01T07:18:40.095Z,21.50
2022-09-01T07:24:11.003Z,21.53
2022-09-01T07:26:49.295Z,21.48
2022-09-01T07:29:21.506Z,21.49
2022-09-01T07:31:49.470Z,21.59
2022-09-01T07:42:32.153Z,21.54
2022-09-01T07:42:59.009Z,21.79
2022-09-01T07:45:59.379Z,21.92
2022-09-01T07:49:01.811Z,22.06
2022-09-01T07:51:37.103Z,22.25
2022-09-01T07:54:05.847Z,22.37
2022-09-01T07:56:39.502Z,22.39
2022-09-01T07:59:09.061Z,22.37
2022-09-01T08:01:47.138Z,22.40
2022-09-01T08:04:14.722Z,22.38
2022-09-01T08:06:43.142Z,22.37
2022-09-01T08:09:11.804Z,22.45
2022-09-01T08:14:33.779Z,22.53
2022-09-01T08:17:16.902Z,22.67
2022-09-01T08:19:46.553Z,22.84
2022-09-01T08:22:23.711Z,22.94
2022-09-01T08:24:59.216Z,22.97
2022-09-01T08:27:26.967Z,23.00
2022-09-01T08:29:54.997Z,23.12
2022-09-01T08:32:22.517Z,23.26
2022-09-01T08:34:50.473Z,23.39
2022-09-01T08:37:17.561Z,23.45
2022-09-01T08:39:46.361Z,23.45
2022-09-01T08:42:40.017Z,23.45
2022-09-01T08:45:37.984Z,23.51
2022-09-01T08:49:23.559Z,23.54
2022-09-01T08:51:42.197Z,23.55
2022-09-01T08:54:42.417Z,23.64
2022-09-01T08:57:45.461Z,23.72
2022-09-01T09:00:28.921Z,23.74
2022-09-01T09:03:13.728Z,23.83
2022-09-01T09:06:31.767Z,23.91
2022-09-01T09:09:07.966Z,24.00
2022-09-01T09:12:12.317Z,24.08
2022-09-01T09:15:14.736Z,24.06
2022-09-01T09:17:58.973Z,24.02
2022-09-01T09:20:29.057Z,24.14
2022-09-01T09:22:59.465Z,24.19
2022-09-01T09:25:29.245Z,24.27
2022-09-01T09:28:03.563Z,24.34
2022-09-01T09:30:32.046Z,24.43
2022-09-01T09:35:57.121Z,24.61
2022-09-01T09:38:28.670Z,24.65
2022-09-01T09:41:17.744Z,24.51
2022-09-01T09:44:24.353Z,24.43
2022-09-01T09:46:51.706Z,24.38
2022-09-01T09:49:43.179Z,24.40
2022-09-01T09:52:17.878Z,24.26
2022-09-01T09:55:06.768Z,24.01
2022-09-01T09:57:41.041Z,23.93
2022-09-01T10:00:29.230Z,23.98
2022-09-01T10:03:08.730Z,24.02
2022-09-01T10:05:51.409Z,24.06
2022-09-01T10:08:28.686Z,24.13
2022-09-01T10:10:56.522Z,24.27
2022-09-01T10:13:31.416Z,24.47
2022-09-01T10:16:09.409Z,24.74
2022-09-01T10:18:44.597Z,24.88
2022-09-01T10:21:30.121Z,24.99
2022-09-01T10:24:22.314Z,25.17
2022-09-01T10:26:58.846Z,25.21
2022-09-01T10:29:34.773Z,25.16
2022-09-01T10:32:31.521Z,25.05
2022-09-01T10:34:59.793Z,24.96
2022-09-01T10:37:27.944Z,24.72
2022-09-01T10:40:31.078Z,24.81
2022-09-01T10:43:28.170Z,24.86
2022-09-01T10:46:05.172Z,24.98
2022-09-01T10:48:46.311Z,25.01
2022-09-01T10:51:19.412Z,25.04
2022-09-01T10:53:51.248Z,24.95
2022-09-01T10:56:43.683Z,24.92
2022-09-01T10:59:43.425Z,24.90
2022-09-01T11:02:25.971Z,24.97
2022-09-01T11:05:00.416Z,24.98
2022-09-01T11:07:58.301Z,25.09
2022-09-01T11:11:23.384Z,25.18
2022-09-01T11:13:58.642Z,24.89
2022-09-01T11:16:49.699Z,24.75
2022-09-01T11:19:41.745Z,24.84
2022-09-01T11:22:27.425Z,25.01
2022-09-01T11:25:42.488Z,25.05
2022-09-01T11:28:17.984Z,25.20
2022-09-01T11:31:08.289Z,25.36
2022-09-01T11:33:57.914Z,25.16
2022-09-01T11:36:48.361Z,25.09
2022-09-01T11:39:19.246Z,25.31
2022-09-01T11:42:16.294Z,25.45
2022-09-01T11:44:59.563Z,25.53
2022-09-01T11:47:40.144Z,25.70
2022-09-01T11:50:21.643Z,25.86
2022-09-01T11:53:12.889Z,25.94
2022-09-01T11:55:51.107Z,25.95
2022-09-01T11:58:38.772Z,25.99
2022-09-01T12:01:30.606Z,26.16
2022-09-01T12:04:19.067Z,26.31
2022-09-01T12:07:13.711Z,26.32
2022-09-01T12:09:51.381Z,26.29
2022-09-01T12:12:32.852Z,26.18
2022-09-01T12:15:18.871Z,26.12
2022-09-01T12:17:47.381Z,26.16
2022-09-01T12:20:38.477Z,26.34
2022-09-01T12:23:27.546Z,26.45
2022-09-01T12:25:58.469Z,26.76
2022-09-01T12:28:33.225Z,26.97
2022-09-01T12:31:07.734Z,26.91
2022-09-01T12:33:36.627Z,26.69
2022-09-01T12:36:16.195Z,26.86
2022-09-01T12:38:43.828Z,27.12
2022-09-01T12:41:39.593Z,27.20
2022-09-01T12:44:59.649Z,26.85
2022-09-01T12:47:35.716Z,26.45
2022-09-01T12:50:05.713Z,26.32
2022-09-01T12:52:45.493Z,26.23
2022-09-01T12:58:25.206Z,25.80
2022-09-01T13:01:05.690Z,25.81
2022-09-01T13:03:37.944Z,26.14
2022-09-01T13:06:06.872Z,26.67
2022-09-01T13:08:35.900Z,27.16
2022-09-01T13:11:15.281Z,27.36
2022-09-01T13:13:42.958Z,27.20
2022-09-01T13:16:12.373Z,26.91
2022-09-01T13:21:31.849Z,26.49
2022-09-01T13:24:00.417Z,26.30
2022-09-01T13:26:31.149Z,26.18
2022-09-01T13:28:59.755Z,26.04
2022-09-01T13:31:30.085Z,25.99
2022-09-01T13:34:22.111Z,25.77
2022-09-01T13:36:51.719Z,25.61
2022-09-01T13:39:21.231Z,25.43
2022-09-01T13:41:49.249Z,25.28
2022-09-01T13:44:18.121Z,25.31
2022-09-01T13:47:28.631Z,25.34
2022-09-01T13:49:43.529Z,25.30
2022-09-01T13:52:12.855Z,25.19
2022-09-01T13:54:40.513Z,25.19
2022-09-01T13:57:08.272Z,25.12
2022-09-01T13:59:36.022Z,25.04
2022-09-01T14:02:05.471Z,24.88
2022-09-01T14:04:33.786Z,24.83
2022-09-01T14:07:01.964Z,24.82
2022-09-01T14:09:29.430Z,24.75
2022-09-01T14:11:57.079Z,24.73
2022-09-01T14:14:25.125Z,24.71
2022-09-01T14:16:53.711Z,24.68
2022-09-01T14:19:21.951Z,24.64
2022-09-01T14:21:49.569Z,24.55
2022-09-01T14:24:19.739Z,24.52
2022-09-01T14:26:50.037Z,24.43
2022-09-01T14:29:17.696Z,24.34
2022-09-01T14:31:45.399Z,24.23
2022-09-01T14:34:14.111Z,24.24
2022-09-01T14:36:41.695Z,24.22
2022-09-01T14:39:13.952Z,24.25
2022-09-01T14:41:42.254Z,24.19
2022-09-01T14:44:09.938Z,24.19
2022-09-01T14:46:39.100Z,24.12
2022-09-01T14:49:07.685Z,23.91
2022-09-01T14:54:25.861Z,23.87
2022-09-01T14:59:42.130Z,23.95
2022-09-01T15:02:10.001Z,23.99
2022-09-01T15:04:37.464Z,24.00
2022-09-01T15:07:05.997Z,23.97
2022-09-01T15:09:34.318Z,23.91
2022-09-01T15:12:01.752Z,23.92
2022-09-01T15:14:29.435Z,23.90
2022-09-01T15:16:56.715Z,23.88
2022-09-01T15:19:24.477Z,23.76
2022-09-01T15:21:52.193Z,23.71
2022-09-01T15:24:19.563Z,23.68
2022-09-01T15:26:46.931Z,23.59
2022-09-01T15:29:14.907Z,23.54
2022-09-01T15:31:44.291Z,23.43
2022-09-01T15:34:13.305Z,23.39
2022-09-01T15:36:41.196Z,23.30
2022-09-01T15:39:10.053Z,23.21
2022-09-01T15:41:38.316Z,23.13
2022-09-01T15:44:07.568Z,23.12
2022-09-01T15:46:38.376Z,23.06
2022-09-01T15:49:09.233Z,23.03
2022-09-01T15:51:43.166Z,23.01
2022-09-01T15:54:18.348Z,22.91
2022-09-01T15:56:47.283Z,22.92
2022-09-01T15:59:15.160Z,22.74
2022-09-01T16:01:46.069Z,22.74
2022-09-01T16:04:19.844Z,22.73
2022-09-01T16:06:50.729Z,22.70
2022-09-01T16:09:20.869Z,22.67
2022-09-01T16:11:49.057Z,22.63
2022-09-01T16:14:17.206Z,22.58
2022-09-01T16:17:13.117Z,22.48
2022-09-01T16:20:07.344Z,22.46
2022-09-01T16:22:42.578Z,22.41
2022-09-01T16:25:32.609Z,22.39
2022-09-01T16:28:17.590Z,22.32
2022-09-01T16:30:49.361Z,22.31
2022-09-01T16:33:20.191Z,22.30
2022-09-01T16:36:24.481Z,22.12
2022-09-01T16:39:05.653Z,22.11
2022-09-01T16:41:50.746Z,22.01
2022-09-01T16:44:45.834Z,21.98
2022-09-01T16:47:42.683Z,21.98
2022-09-01T16:50:28.946Z,21.96
2022-09-01T16:53:19.998Z,21.90
2022-09-01T16:56:08.906Z,21.89
2022-09-01T16:58:58.196Z,21.91
2022-09-01T17:01:31.584Z,21.89
2022-09-01T17:04:42.216Z,21.90
2022-09-01T17:07:35.462Z,21.82
2022-09-01T17:10:54.866Z,21.85
2022-09-01T17:13:51.949Z,21.86
2022-09-01T17:16:38.070Z,21.84
2022-09-01T17:19:13.177Z,21.77
2022-09-01T17:21:52.685Z,21.74
2022-09-01T17:24:44.414Z,21.71
2022-09-01T17:27:58.085Z,21.68
2022-09-01T17:30:26.449Z,21.61
2022-09-01T17:33:22.881Z,21.52
2022-09-01T17:36:46.647Z,21.53
2022-09-01T17:39:54.818Z,21.46
2022-09-01T17:42:39.418Z,21.33
2022-09-01T17:46:03.611Z,21.26
2022-09-01T17:48:52.627Z,21.22
2022-09-01T17:51:53.904Z,21.17
2022-09-01T17:54:36.866Z,21.18
2022-09-01T17:57:30.708Z,21.16
2022-09-01T18:00:10.417Z,21.15
2022-09-01T18:03:04.004Z,21.13
2022-09-01T18:06:09.058Z,21.10
2022-09-01T18:08:50.428Z,21.02
2022-09-01T18:11:45.458Z,21.01
2022-09-01T18:14:22.693Z,20.97
2022-09-01T18:17:16.102Z,20.93
2022-09-01T18:19:50.607Z,20.90
2022-09-01T18:22:22.545Z,20.92
2022-09-01T18:25:06.200Z,20.94
2022-09-01T18:27:36.491Z,20.94
2022-09-01T18:30:05.580Z,20.88
2022-09-01T18:32:55.721Z,20.84
2022-09-01T18:35:47.279Z,20.85
2022-09-01T18:38:58.841Z,20.84
2022-09-01T18:41:32.630Z,20.84
2022-09-01T18:44:20.133Z,20.85
2022-09-01T18:47:01.045Z,20.86
2022-09-01T18:49:45.487Z,20.85
2022-09-01T18:52:47.063Z,20.86
2022-09-01T18:55:30.997Z,20.85
2022-09-01T18:58:06.287Z,20.87
2022-09-01T19:00:54.488Z,20.85
2022-09-01T19:03:29.625Z,20.88
2022-09-01T19:06:21.041Z,20.84
2022-09-01T19:09:28.960Z,20.84
2022-09-01T19:12:14.170Z,20.83
2022-09-01T19:15:16.634Z,20.83
2022-09-01T19:18:02.608Z,20.79
2022-09-01T19:21:07.332Z,20.79
2022-09-01T19:24:01.246Z,20.78
2022-09-01T19:26:37.887Z,20.77
2022-09-01T19:29:12.708Z,20.75
2022-09-01T19:31:44.848Z,20.70
2022-09-01T19:34:20.326Z,20.67
2022-09-01T19:36:56.959Z,20.66
2022-09-01T19:39:49.810Z,20.67
2022-09-01T19:42:48.041Z,20.67
2022-09-01T19:45:56.722Z,20.64
2022-09-01T19:48:38.044Z,20.63
2022-09-01T19:51:22.073Z,20.60
2022-09-01T19:54:10.991Z,20.60
2022-09-01T19:56:49.989Z,20.60
2022-09-01T20:00:06.468Z,20.58
2022-09-01T20:02:45.784Z,20.54
2022-09-01T20:05:26.774Z,20.51
2022-09-01T20:08:08.182Z,20.47
2022-09-01T20:10:37.155Z,20.45
2022-09-01T20:13:36.278Z,20.40
2022-09-01T20:16:28.075Z,20.37
2022-09-01T20:19:10.070Z,20.37
2022-09-01T20:21:44.312Z,20.39
2022-09-01T20:24:18.395Z,20.36
2022-09-01T20:27:01.610Z,20.30
2022-09-01T20:30:06.460Z,20.29
2022-09-01T20:33:14.764Z,20.24
2022-09-01T20:35:55.853Z,20.27
2022-09-01T20:39:21.677Z,20.28
2022-09-01T20:42:10.331Z,20.25
2022-09-01T20:44:49.961Z,20.23
2022-09-01T20:47:17.121Z,20.16
2022-09-01T20:49:45.192Z,20.14
2022-09-01T20:52:40.200Z,20.14
2022-09-01T20:55:24.169Z,20.07
2022-09-01T20:58:32.967Z,20.06
2022-09-01T21:01:12.116Z,20.07
2022-09-01T21:04:25.421Z,20.02
2022-09-01T21:07:12.774Z,19.96
2022-09-01T21:09:55.657Z,19.93
2022-09-01T21:12:36.839Z,19.91
2022-09-01T21:15:23.761Z,19.87
2022-09-01T21:17:59.449Z,19.85
2022-09-01T21:20:44.989Z,19.74
2022-09-01T21:23:15.854Z,19.73
2022-09-01T21:25:46.355Z,19.70
2022-09-01T21:28:19.753Z,19.70
2022-09-01T21:30:53.879Z,19.65
2022-09-01T21:33:22.811Z,19.66
2022-09-01T21:35:50.312Z,19.64
2022-09-01T21:38:18.711Z,19.64
2022-09-01T21:40:48.905Z,19.63
2022-09-01T21:43:31.553Z,19.62
2022-09-01T21:45:59.846Z,19.58
2022-09-01T21:48:27.461Z,19.54
2022-09-01T21:50:54.613Z,19.57
2022-09-01T21:53:21.940Z,19.59
2022-09-01T21:55:49.381Z,19.62
2022-09-01T21:58:16.880Z,19.63
2022-09-01T22:00:44.542Z,19.66
2022-09-01T22:03:12.603Z,19.64
2022-09-01T22:05:42.185Z,19.64
2022-09-01T22:08:12.467Z,19.62
2022-09-01T22:10:48.919Z,19.57
2022-09-01T22:13:17.868Z,19.55
2022-09-01T22:15:49.480Z,19.56
2022-09-01T22:18:18.534Z,19.59
2022-09-01T22:20:47.069Z,19.55
2022-09-01T22:23:14.987Z,19.51
2022-09-01T22:25:46.763Z,19.54
2022-09-01T22:28:14.170Z,19.56
2022-09-01T22:30:53.303Z,19.55
2022-09-01T22:33:22.821Z,19.53
2022-09-01T22:35:53.385Z,19.54
2022-09-01T22:38:22.991Z,19.54
2022-09-01T22:40:55.845Z,19.55
2022-09-01T22:43:25.673Z,19.56
2022-09-01T22:45:55.249Z,19.56
2022-09-01T22:48:24.791Z,19.57
2022-09-01T22:50:53.214Z,19.55
2022-09-01T22:53:21.869Z,19.55
2022-09-01T22:55:51.590Z,19.53
2022-09-01T22:58:20.154Z,19.52
2022-09-01T23:00:52.384Z,19.51
2022-09-01T23:03:20.969Z,19.45
2022-09-01T23:05:49.578Z,19.41
2022-09-01T23:08:17.553Z,19.38
2022-09-01T23:10:45.418Z,19.32
2022-09-01T23:13:12.839Z,19.28
2022-09-01T23:15:40.152Z,19.24
2022-09-01T23:18:07.276Z,19.16
2022-09-01T23:20:34.631Z,19.16
2022-09-01T23:23:03.726Z,19.16
2022-09-01T23:25:31.284Z,19.17
2022-09-01T23:27:58.741Z,19.18
2022-09-01T23:30:26.023Z,19.18
2022-09-01T23:32:53.348Z,19.12
2022-09-01T23:35:20.432Z,19.12
2022-09-01T23:37:47.640Z,19.09
2022-09-01T23:40:14.932Z,19.08
2022-09-01T23:42:42.152Z,19.03
2022-09-01T23:45:09.961Z,19.03
2022-09-01T23:47:37.464Z,19.04
2022-09-01T23:50:06.645Z,19.03
2022-09-01T23:52:34.274Z,19.01
2022-09-01T23:55:01.681Z,18.98
2022-09-01T23:57:28.932Z,18.93
2022-09-01T23:59:56.673Z,18.93
